Impacts TAF Board
For situational awareness. Not to be used for flight planning purposes.
IDs:

KJFK - New York/Kennedy Int, NY, US

Issued at 0237 UTC 23 Oct 2018
Updated at 0312 UTC 23 Oct 2018
Potential Impact None Slight Moderate High
Time0251Z 23/04Z 23/05Z 23/06Z 23/07Z 23/08Z 23/09Z 23/10Z 23/11Z 23/12Z 23/13Z 23/14Z 23/15Z 23/16Z>>
Type OBS PRVL PRVL PRVL PRVL PRVL PRVL PRVL PRVL PRVL PRVL PRVL PRVL PRVL
VIS 10 >6 >6 >6 >6 >6 >6 >6 >6 >6 >6 >6 >6 >6
CIG 250 250 250 50 50 50 50 50 50 50 50 50 50 50
Cover BKN BKN BKN BKN BKN BKN BKN BKN BKN BKN BKN BKN BKN BKN
FltCat VFR VFR VFR VFR VFR VFR VFR VFR VFR VFR VFR VFR VFR VFR
WX -- -- -- -- -- -- -- -- -- -- -- -- -- --
WDir 220 220 220 220 220 220 220 220 220 220 220 220 220 220
WSpd 10 9 9 5 5 5 5 5 5 5 5 5 5 5
WGst -- -- -- -- -- -- -- -- -- -- -- -- -- --
Raw TAF
KJFK 230237Z 2303/2406 22009KT P6SM FEW050 BKN250
  FM230600 22005KT P6SM BKN050
  FM231800 24014KT P6SM VCSH BKN050
  FM232200 26016G25KT P6SM VCSH BKN060
  FM240100 29017G29KT P6SM FEW060 BKN200


Raw METAR
KJFK 230251Z 22010KT 10SM BKN250 09/04 A3019 RMK AO2 SLP224 T00940044 50000
KJFK 230151Z 22009KT 10SM BKN250 09/04 A3020 RMK AO2 SLP225 T00940039
KJFK 230051Z 23014G18KT 10SM FEW090 BKN250 10/03 A3020 RMK AO2 SLP225 T01000028

METAR Board
Radar Display
Forecast Discussion
For situational awareness. Not to be used for flight planning purposes.